createdAt,value
2022-10-13T00:00:09.347Z,99226.94
2022-10-13T00:00:42.520Z,99225.75
2022-10-13T00:00:57.377Z,99230.84
2022-10-13T00:01:11.667Z,99229.00
2022-10-13T00:01:25.506Z,99228.94
2022-10-13T00:01:57.124Z,99225.16
2022-10-13T00:02:41.029Z,99227.00
2022-10-13T00:02:53.945Z,99230.72
2022-10-13T00:03:09.068Z,99230.63
2022-10-13T00:03:22.371Z,99232.34
2022-10-13T00:03:38.590Z,99225.31
2022-10-13T00:03:51.792Z,99232.41
2022-10-13T00:04:05.717Z,99235.97
2022-10-13T00:04:21.216Z,99226.06
2022-10-13T00:04:34.138Z,99234.88
2022-10-13T00:04:47.832Z,99232.16
2022-10-13T00:05:20.715Z,99224.09
2022-10-13T00:05:34.063Z,99229.44
2022-10-13T00:05:48.063Z,99226.84
2022-10-13T00:06:01.091Z,99227.03
2022-10-13T00:06:15.673Z,99228.88
2022-10-13T00:06:28.543Z,99231.37
2022-10-13T00:06:41.972Z,99226.25
2022-10-13T00:06:54.766Z,99231.53
2022-10-13T00:07:07.971Z,99235.94
2022-10-13T00:07:20.880Z,99224.44
2022-10-13T00:07:33.675Z,99222.78
2022-10-13T00:07:46.651Z,99225.72
2022-10-13T00:08:01.617Z,99224.16
2022-10-13T00:08:15.297Z,99232.06
2022-10-13T00:08:32.831Z,99229.41
2022-10-13T00:08:45.690Z,99230.34
2022-10-13T00:08:58.820Z,99223.31
2022-10-13T00:09:13.497Z,99229.41
2022-10-13T00:09:26.309Z,99232.75
2022-10-13T00:09:39.089Z,99230.00
2022-10-13T00:09:52.077Z,99223.78
2022-10-13T00:10:05.757Z,99222.91
2022-10-13T00:10:18.966Z,99228.22
2022-10-13T00:10:31.807Z,99229.94
2022-10-13T00:10:45.799Z,99229.94
2022-10-13T00:11:00.384Z,99229.91
2022-10-13T00:11:31.415Z,99229.00
2022-10-13T00:11:45.228Z,99224.00
2022-10-13T00:11:58.547Z,99224.97
2022-10-13T00:12:11.378Z,99230.28
2022-10-13T00:12:28.619Z,99232.00
2022-10-13T00:12:41.535Z,99229.34
2022-10-13T00:12:54.337Z,99227.56
2022-10-13T00:13:08.244Z,99231.84
2022-10-13T00:13:23.285Z,99230.97
2022-10-13T00:13:37.012Z,99227.56
2022-10-13T00:13:50.069Z,99224.81
2022-10-13T00:14:04.345Z,99225.66
2022-10-13T00:14:17.410Z,99230.84
2022-10-13T00:14:34.768Z,99232.56
2022-10-13T00:14:47.768Z,99230.91
2022-10-13T00:15:00.988Z,99223.75
2022-10-13T00:15:13.795Z,99229.00
2022-10-13T00:15:43.199Z,99230.56
2022-10-13T00:16:02.215Z,99226.28
2022-10-13T00:16:17.202Z,99228.06
2022-10-13T00:16:32.282Z,99231.66
2022-10-13T00:16:45.153Z,99229.06
2022-10-13T00:16:57.989Z,99225.53
2022-10-13T00:17:10.839Z,99227.44
2022-10-13T00:17:24.242Z,99225.88
2022-10-13T00:17:37.631Z,99227.84
2022-10-13T00:17:50.764Z,99230.56
2022-10-13T00:18:04.484Z,99230.75
2022-10-13T00:18:17.348Z,99224.50
2022-10-13T00:18:30.325Z,99224.41
2022-10-13T00:18:43.229Z,99224.34
2022-10-13T00:18:58.536Z,99229.34
2022-10-13T00:19:14.942Z,99228.44
2022-10-13T00:19:30.226Z,99232.25
2022-10-13T00:19:44.154Z,99223.25
2022-10-13T00:19:57.440Z,99225.03
2022-10-13T00:20:10.612Z,99226.59
2022-10-13T00:20:23.408Z,99229.06
2022-10-13T00:20:37.324Z,99224.63
2022-10-13T00:20:52.315Z,99224.56
2022-10-13T00:21:09.219Z,99226.25
2022-10-13T00:21:24.363Z,99223.53
2022-10-13T00:21:37.202Z,99222.66
2022-10-13T00:21:51.958Z,99230.50
2022-10-13T00:22:05.184Z,99228.88
2022-10-13T00:22:20.772Z,99221.03
2022-10-13T00:22:35.135Z,99223.59
2022-10-13T00:22:47.995Z,99234.38
2022-10-13T00:23:01.275Z,99231.72
2022-10-13T00:23:14.223Z,99234.38
2022-10-13T00:23:27.043Z,99226.44
2022-10-13T00:23:40.834Z,99227.69
2022-10-13T00:23:54.769Z,99229.69
2022-10-13T00:24:10.493Z,99224.69
2022-10-13T00:24:23.834Z,99225.84
2022-10-13T00:24:38.960Z,99227.50
2022-10-13T00:24:53.855Z,99223.94
2022-10-13T00:25:07.237Z,99229.00
2022-10-13T00:25:21.185Z,99231.72
2022-10-13T00:25:46.759Z,99226.41
2022-10-13T00:26:04.371Z,99227.09
2022-10-13T00:26:17.783Z,99225.03
2022-10-13T00:26:30.999Z,99226.69
2022-10-13T00:26:43.828Z,99224.00
2022-10-13T00:26:59.283Z,99234.50
2022-10-13T00:27:12.329Z,99230.87
2022-10-13T00:27:25.221Z,99232.56
2022-10-13T00:27:39.022Z,99235.34
2022-10-13T00:27:51.872Z,99230.09
2022-10-13T00:28:05.617Z,99231.03
2022-10-13T00:28:19.827Z,99231.66
2022-10-13T00:28:35.281Z,99236.31
2022-10-13T00:28:52.292Z,99228.25
2022-10-13T00:29:10.315Z,99227.22
2022-10-13T00:29:23.102Z,99231.59
2022-10-13T00:29:36.108Z,99224.56
2022-10-13T00:29:49.406Z,99231.78
2022-10-13T00:30:03.475Z,99228.47
2022-10-13T00:30:16.374Z,99231.94
2022-10-13T00:30:29.221Z,99231.00
2022-10-13T00:30:42.362Z,99227.50
2022-10-13T00:30:55.172Z,99235.19
2022-10-13T00:31:31.696Z,99230.66
2022-10-13T00:31:46.764Z,99235.47
2022-10-13T00:31:59.621Z,99229.28
2022-10-13T00:32:12.774Z,99226.59
2022-10-13T00:32:25.902Z,99233.63
2022-10-13T00:32:38.781Z,99227.41
2022-10-13T00:32:52.645Z,99225.53
2022-10-13T00:33:06.025Z,99230.16
2022-10-13T00:33:18.815Z,99225.97
2022-10-13T00:33:31.670Z,99231.66
2022-10-13T00:33:44.587Z,99223.72
2022-10-13T00:33:58.336Z,99221.84
2022-10-13T00:34:11.488Z,99225.56
2022-10-13T00:34:24.569Z,99227.50
2022-10-13T00:34:38.235Z,99228.47
2022-10-13T00:34:51.118Z,99223.87
2022-10-13T00:35:04.301Z,99231.72
2022-10-13T00:35:17.350Z,99227.50
2022-10-13T00:35:32.337Z,99230.19
2022-10-13T00:35:47.485Z,99230.00
2022-10-13T00:36:00.368Z,99225.56
2022-10-13T00:36:13.344Z,99224.56
2022-10-13T00:36:27.225Z,99224.50
2022-10-13T00:36:41.418Z,99227.97
2022-10-13T00:36:54.222Z,99231.72
2022-10-13T00:37:07.141Z,99222.09
2022-10-13T00:37:19.933Z,99226.22
2022-10-13T00:37:32.752Z,99227.97
2022-10-13T00:37:45.586Z,99224.41
2022-10-13T00:37:58.416Z,99230.72
2022-10-13T00:38:11.451Z,99229.88
2022-10-13T00:38:25.193Z,99228.16
2022-10-13T00:38:38.291Z,99230.81
2022-10-13T00:38:52.557Z,99235.16
2022-10-13T00:39:08.237Z,99229.69
2022-10-13T00:39:21.074Z,99224.28
2022-10-13T00:39:34.286Z,99220.81
2022-10-13T00:39:47.381Z,99227.84
2022-10-13T00:40:00.723Z,99226.94
2022-10-13T00:40:14.640Z,99224.34
2022-10-13T00:40:27.860Z,99227.16
2022-10-13T00:40:52.266Z,99222.84
2022-10-13T00:41:05.647Z,99221.34
2022-10-13T00:41:18.627Z,99227.56
2022-10-13T00:41:31.476Z,99225.66
2022-10-13T00:41:44.784Z,99221.13
2022-10-13T00:41:58.529Z,99228.06
2022-10-13T00:42:12.832Z,99224.28
2022-10-13T00:42:27.228Z,99218.13
2022-10-13T00:42:41.671Z,99216.28
2022-10-13T00:42:54.555Z,99227.69
2022-10-13T00:43:14.828Z,99226.22
2022-10-13T00:43:47.566Z,99230.91
2022-10-13T00:44:05.523Z,99230.09
2022-10-13T00:44:55.831Z,99229.28
2022-10-13T00:45:22.782Z,99226.56
2022-10-13T00:45:35.922Z,99230.84
2022-10-13T00:45:50.806Z,99230.91
2022-10-13T00:46:03.728Z,99227.22
2022-10-13T00:46:16.583Z,99232.50
2022-10-13T00:46:36.191Z,99221.78
2022-10-13T00:46:49.006Z,99230.63
2022-10-13T00:47:02.238Z,99230.28
2022-10-13T00:47:15.083Z,99236.50
2022-10-13T00:47:31.376Z,99230.44
2022-10-13T00:47:56.161Z,99224.41
2022-10-13T00:48:09.004Z,99227.84
2022-10-13T00:48:28.847Z,99233.38
2022-10-13T00:48:41.811Z,99222.09
2022-10-13T00:49:14.566Z,99232.59
2022-10-13T00:49:27.460Z,99230.19
2022-10-13T00:50:02.889Z,99229.19
2022-10-13T00:50:18.016Z,99228.03
2022-10-13T00:50:36.035Z,99219.16
2022-10-13T00:50:49.831Z,99228.72
2022-10-13T00:51:02.700Z,99221.59
2022-10-13T00:51:16.571Z,99221.63
2022-10-13T00:51:30.621Z,99225.44
2022-10-13T00:51:45.117Z,99218.53
2022-10-13T00:51:58.028Z,99216.69
2022-10-13T00:52:27.113Z,99223.81
2022-10-13T00:52:40.558Z,99224.09
2022-10-13T00:52:53.701Z,99223.44
2022-10-13T00:53:06.843Z,99220.16
2022-10-13T00:53:23.388Z,99221.78
2022-10-13T00:53:36.957Z,99224.37
2022-10-13T00:53:51.033Z,99221.38
2022-10-13T00:54:04.495Z,99221.50
2022-10-13T00:54:37.238Z,99218.81
2022-10-13T00:54:52.302Z,99218.34
2022-10-13T00:55:05.747Z,99216.69
2022-10-13T00:55:21.229Z,99220.12
2022-10-13T00:55:35.453Z,99218.63
2022-10-13T00:55:48.553Z,99217.88
2022-10-13T00:56:01.656Z,99221.22
2022-10-13T00:56:15.501Z,99217.53
2022-10-13T00:56:28.438Z,99221.91
2022-10-13T00:56:42.993Z,99219.25
2022-10-13T00:56:56.284Z,99212.34
2022-10-13T00:57:09.135Z,99223.13
2022-10-13T00:57:21.979Z,99222.19
2022-10-13T00:57:38.817Z,99221.28
2022-10-13T00:57:55.954Z,99215.16
2022-10-13T00:58:10.461Z,99212.47
2022-10-13T00:58:23.753Z,99219.59
2022-10-13T00:58:37.036Z,99215.00
2022-10-13T00:58:50.176Z,99216.63
2022-10-13T00:59:03.875Z,99217.66
2022-10-13T00:59:23.283Z,99213.97
2022-10-13T01:00:19.048Z,99212.88
2022-10-13T01:00:32.947Z,99217.38
2022-10-13T01:00:46.948Z,99215.69
2022-10-13T01:00:59.856Z,99214.84
2022-10-13T01:01:13.394Z,99216.56
2022-10-13T01:01:28.431Z,99214.91
2022-10-13T01:01:45.637Z,99219.34
2022-10-13T01:01:59.130Z,99223.13
2022-10-13T01:02:12.156Z,99215.34
2022-10-13T01:02:28.395Z,99220.59
2022-10-13T01:02:41.606Z,99209.56
2022-10-13T01:02:54.448Z,99217.41
2022-10-13T01:03:07.690Z,99218.28
2022-10-13T01:03:20.987Z,99212.16
2022-10-13T01:03:34.324Z,99212.91
2022-10-13T01:03:48.058Z,99219.06
2022-10-13T01:04:01.309Z,99215.41
2022-10-13T01:04:14.117Z,99215.50
2022-10-13T01:04:30.844Z,99211.00
2022-10-13T01:04:46.651Z,99214.38
2022-10-13T01:04:59.632Z,99216.78
2022-10-13T01:05:12.862Z,99214.94
2022-10-13T01:05:26.039Z,99209.53
2022-10-13T01:05:40.122Z,99217.59
2022-10-13T01:05:56.127Z,99215.00
2022-10-13T01:06:09.249Z,99214.31
2022-10-13T01:06:23.774Z,99218.91
2022-10-13T01:06:36.889Z,99218.16
2022-10-13T01:06:49.974Z,99209.66
2022-10-13T01:07:06.746Z,99216.59
2022-10-13T01:07:20.815Z,99212.75
2022-10-13T01:07:34.923Z,99216.25
2022-10-13T01:08:08.206Z,99219.00
2022-10-13T01:08:21.985Z,99213.81
2022-10-13T01:08:35.077Z,99218.28
2022-10-13T01:08:48.121Z,99215.72
2022-10-13T01:09:01.143Z,99214.88
2022-10-13T01:09:14.953Z,99216.37
2022-10-13T01:09:34.863Z,99216.22
2022-10-13T01:09:47.968Z,99212.59
2022-10-13T01:10:05.665Z,99216.91
2022-10-13T01:10:46.376Z,99216.03
2022-10-13T01:11:22.958Z,99209.91
2022-10-13T01:11:49.632Z,99219.66
2022-10-13T01:12:21.495Z,99211.47
2022-10-13T01:13:04.509Z,99217.94
2022-10-13T01:13:24.708Z,99209.00
2022-10-13T01:14:02.576Z,99217.75
2022-10-13T01:14:35.535Z,99209.88
2022-10-13T01:14:48.424Z,99211.38
2022-10-13T01:26:57.968Z,99209.41
2022-10-13T01:27:25.484Z,99209.41
2022-10-13T01:28:01.318Z,99224.19
2022-10-13T01:28:21.026Z,99218.97
2022-10-13T01:28:59.337Z,99217.06
2022-10-13T01:29:46.959Z,99219.88
2022-10-13T01:30:04.843Z,99219.69
2022-10-13T01:30:21.822Z,99212.44
2022-10-13T01:30:37.391Z,99212.47
2022-10-13T01:31:24.751Z,99219.41
2022-10-13T01:32:18.878Z,99211.44
2022-10-13T01:32:54.318Z,99217.91
2022-10-13T01:33:29.749Z,99209.06
2022-10-13T01:34:20.923Z,99218.69
2022-10-13T01:34:59.586Z,99216.94
2022-10-13T01:35:28.894Z,99218.06
2022-10-13T01:36:04.177Z,99218.78
2022-10-13T01:37:03.528Z,99216.69
2022-10-13T01:37:45.105Z,99220.97
2022-10-13T01:38:03.723Z,99213.25
2022-10-13T01:38:44.985Z,99216.94
2022-10-13T01:39:09.815Z,99205.44
2022-10-13T01:39:55.692Z,99218.78
2022-10-13T01:40:51.680Z,99207.25
2022-10-13T01:41:28.837Z,99215.44
2022-10-13T02:21:45.420Z,99189.38
2022-10-13T02:21:59.003Z,99192.87
2022-10-13T02:22:33.733Z,99192.78
2022-10-13T02:22:48.103Z,99188.28
2022-10-13T02:23:03.153Z,99194.41
2022-10-13T02:23:20.070Z,99191.75
2022-10-13T02:23:34.113Z,99192.56
2022-10-13T02:24:07.537Z,99194.25
2022-10-13T02:44:51.321Z,99193.09
2022-10-13T02:45:04.827Z,99190.44
2022-10-13T02:45:18.198Z,99192.56
2022-10-13T02:45:31.655Z,99193.75
2022-10-13T02:45:44.827Z,99186.06
2022-10-13T02:45:59.289Z,99189.75
2022-10-13T02:46:13.288Z,99191.69
2022-10-13T02:46:27.055Z,99194.44
2022-10-13T02:46:40.268Z,99192.63
2022-10-13T02:46:53.959Z,99190.97
2022-10-13T02:47:08.835Z,99194.50
2022-10-13T02:47:22.146Z,99188.13
2022-10-13T02:47:39.124Z,99186.28
2022-10-13T02:48:11.871Z,99196.91
2022-10-13T02:48:25.748Z,99188.13
2022-10-13T02:48:39.130Z,99189.75
2022-10-13T02:48:52.550Z,99190.59
2022-10-13T02:49:25.460Z,99199.34
2022-10-13T02:49:38.812Z,99190.81
2022-10-13T02:50:08.339Z,99190.81
2022-10-13T02:50:23.067Z,99192.41
2022-10-13T02:50:36.316Z,99195.91
2022-10-13T02:50:49.144Z,99191.69
2022-10-13T03:05:17.980Z,99190.19
2022-10-13T03:05:31.138Z,99185.87
2022-10-13T03:05:48.542Z,99182.12
2022-10-13T03:06:01.541Z,99192.50
2022-10-13T03:06:15.226Z,99193.31
2022-10-13T03:06:29.934Z,99187.81
2022-10-13T03:06:47.446Z,99191.94
2022-10-13T03:07:00.290Z,99194.31
2022-10-13T03:07:13.680Z,99196.09
2022-10-13T03:07:27.113Z,99196.78
2022-10-13T03:07:40.333Z,99197.62
2022-10-13T03:07:53.311Z,99194.19
2022-10-13T03:08:06.592Z,99190.72
2022-10-13T03:08:20.449Z,99188.31
2022-10-13T03:08:34.088Z,99190.88
2022-10-13T03:08:47.859Z,99193.87
2022-10-13T03:09:01.194Z,99195.50
2022-10-13T03:09:14.427Z,99193.50
2022-10-13T03:09:47.384Z,99199.47
2022-10-13T03:10:00.494Z,99189.31
2022-10-13T03:10:33.520Z,99191.09
2022-10-13T03:10:46.864Z,99187.53
2022-10-13T03:10:59.905Z,99186.66
2022-10-13T03:11:32.835Z,99186.56
2022-10-13T03:11:46.371Z,99190.25
2022-10-13T03:12:00.741Z,99192.06
2022-10-13T03:12:14.433Z,99192.31
2022-10-13T03:12:47.157Z,99191.63
2022-10-13T03:13:00.682Z,99192.03
2022-10-13T03:13:13.759Z,99187.72
2022-10-13T03:13:26.875Z,99187.75
2022-10-13T03:13:40.080Z,99185.19
2022-10-13T03:14:13.357Z,99188.09
2022-10-13T03:14:26.613Z,99186.19
2022-10-13T03:14:40.209Z,99186.22
2022-10-13T03:14:57.151Z,99190.50
2022-10-13T03:15:10.709Z,99186.84
2022-10-13T03:15:25.502Z,99188.56
2022-10-13T03:15:38.892Z,99189.34
2022-10-13T03:15:52.812Z,99183.94
2022-10-13T03:16:06.638Z,99189.50
2022-10-13T03:16:40.335Z,99190.31
2022-10-13T03:16:53.218Z,99189.94
2022-10-13T03:17:11.147Z,99188.06
2022-10-13T03:17:26.451Z,99193.41
2022-10-13T03:17:39.589Z,99191.56
2022-10-13T03:17:56.341Z,99190.88
2022-10-13T03:18:09.801Z,99192.34
2022-10-13T03:18:22.835Z,99189.62
2022-10-13T03:18:36.700Z,99188.22
2022-10-13T03:18:49.548Z,99189.94
2022-10-13T03:19:20.602Z,99190.75
2022-10-13T03:19:54.677Z,99189.94
2022-10-13T03:20:08.492Z,99185.09
2022-10-13T03:20:23.417Z,99189.50
2022-10-13T03:20:44.340Z,99187.56
2022-10-13T03:21:00.452Z,99189.84
2022-10-13T03:21:33.364Z,99186.37
2022-10-13T03:21:46.879Z,99185.97
2022-10-13T03:22:04.124Z,99184.09
2022-10-13T03:22:22.647Z,99187.53
2022-10-13T03:22:36.379Z,99185.78
2022-10-13T03:23:09.145Z,99183.84
2022-10-13T03:23:22.168Z,99186.47
2022-10-13T03:23:43.196Z,99185.78
2022-10-13T03:23:56.558Z,99188.50
2022-10-13T03:24:10.260Z,99190.34
2022-10-13T03:24:23.240Z,99185.25
2022-10-13T03:24:36.344Z,99186.97
2022-10-13T03:24:50.058Z,99190.59
2022-10-13T03:25:03.950Z,99193.91
2022-10-13T03:25:17.235Z,99184.94
2022-10-13T03:25:30.527Z,99182.06
2022-10-13T03:25:47.941Z,99187.09
2022-10-13T03:26:00.812Z,99188.25
2022-10-13T03:26:15.567Z,99185.63
2022-10-13T03:26:48.300Z,99187.44
2022-10-13T03:27:01.336Z,99184.13
2022-10-13T03:27:14.315Z,99184.94
2022-10-13T03:27:48.989Z,99186.78
2022-10-13T03:28:03.956Z,99186.66
2022-10-13T03:28:16.829Z,99186.50
2022-10-13T03:28:29.999Z,99183.81
2022-10-13T03:28:43.342Z,99184.66
2022-10-13T03:28:56.406Z,99188.00
2022-10-13T03:29:16.468Z,99182.06
2022-10-13T03:29:49.420Z,99191.09
2022-10-13T03:30:02.796Z,99186.28
2022-10-13T03:30:35.693Z,99182.78
2022-10-13T03:31:09.157Z,99183.16
2022-10-13T03:31:21.983Z,99185.31
2022-10-13T03:31:54.966Z,99184.34
2022-10-13T03:32:08.702Z,99187.75
2022-10-13T03:32:22.157Z,99184.94
2022-10-13T03:32:37.177Z,99182.28
2022-10-13T03:32:49.972Z,99178.72
2022-10-13T03:33:07.017Z,99183.31
2022-10-13T03:33:19.892Z,99184.38
2022-10-13T03:33:32.759Z,99181.75
2022-10-13T03:33:45.606Z,99185.41
2022-10-13T03:34:00.386Z,99187.25
2022-10-13T03:34:35.053Z,99184.97
2022-10-13T03:35:08.904Z,99180.50
2022-10-13T03:35:21.821Z,99177.37
2022-10-13T03:36:19.840Z,99179.22
2022-10-13T03:36:32.895Z,99184.66
2022-10-13T03:37:06.343Z,99185.37
2022-10-13T03:37:20.228Z,99183.03
2022-10-13T03:37:33.084Z,99182.22
2022-10-13T04:15:41.489Z,99173.09
2022-10-13T04:16:05.045Z,99171.34
2022-10-13T04:16:23.791Z,99170.28
2022-10-13T04:16:37.200Z,99174.72
2022-10-13T04:16:50.027Z,99180.00
2022-10-13T04:17:04.073Z,99170.34
2022-10-13T04:17:17.471Z,99174.78
2022-10-13T04:17:39.017Z,99173.94
2022-10-13T04:17:55.904Z,99177.37
2022-10-13T04:18:08.982Z,99170.19
2022-10-13T04:18:22.023Z,99175.63
2022-10-13T04:18:42.402Z,99164.19
2022-10-13T04:18:59.471Z,99172.06
2022-10-13T04:19:31.493Z,99169.47
2022-10-13T04:19:44.668Z,99170.53
2022-10-13T04:19:57.801Z,99165.91
2022-10-13T04:20:11.136Z,99171.09
2022-10-13T04:20:43.858Z,99167.53
2022-10-13T04:21:10.224Z,99162.78
2022-10-13T04:21:33.614Z,99171.38
2022-10-13T04:21:47.423Z,99173.16
2022-10-13T04:22:02.208Z,99163.28
2022-10-13T04:22:15.464Z,99164.91
2022-10-13T04:22:28.716Z,99171.00
2022-10-13T04:22:43.509Z,99166.59
2022-10-13T04:22:56.306Z,99170.16
2022-10-13T04:23:09.485Z,99169.41
2022-10-13T04:23:30.396Z,99166.69
2022-10-13T04:23:43.338Z,99166.38
2022-10-13T04:23:58.134Z,99167.28
2022-10-13T04:24:12.358Z,99170.72
2022-10-13T04:24:25.593Z,99170.66
2022-10-13T04:24:38.772Z,99171.66
2022-10-13T04:25:41.400Z,99168.16
2022-10-13T04:25:56.661Z,99170.97
2022-10-13T04:26:21.988Z,99169.22
2022-10-13T04:26:54.878Z,99168.13
2022-10-13T04:27:27.666Z,99166.78
2022-10-13T04:27:48.230Z,99170.16
2022-10-13T04:28:02.789Z,99172.69
2022-10-13T04:28:36.086Z,99171.00
2022-10-13T04:28:49.964Z,99169.22
2022-10-13T04:29:04.341Z,99164.06
2022-10-13T04:29:20.970Z,99163.22
2022-10-13T04:29:34.146Z,99171.38
2022-10-13T04:29:47.705Z,99172.22
2022-10-13T04:30:01.031Z,99172.19
2022-10-13T04:30:14.630Z,99173.88
2022-10-13T04:30:49.138Z,99167.50
2022-10-13T04:31:03.267Z,99169.28
2022-10-13T04:31:16.267Z,99166.69
2022-10-13T04:31:33.249Z,99168.31
2022-10-13T04:31:46.129Z,99165.72
2022-10-13T04:32:01.983Z,99165.94
2022-10-13T04:32:15.029Z,99170.34
2022-10-13T04:32:47.771Z,99167.56
2022-10-13T04:33:00.952Z,99169.50
2022-10-13T04:33:22.465Z,99169.78
2022-10-13T04:33:35.268Z,99171.63
2022-10-13T04:33:52.206Z,99167.91
2022-10-13T04:34:07.721Z,99165.16
2022-10-13T04:34:22.689Z,99165.00
2022-10-13T04:34:36.156Z,99169.28
2022-10-13T04:34:49.677Z,99165.97
2022-10-13T04:35:06.807Z,99164.16
2022-10-13T04:35:19.862Z,99168.63
2022-10-13T04:35:32.972Z,99163.50
2022-10-13T05:05:05.203Z,99164.72
2022-10-13T05:05:23.953Z,99164.72
2022-10-13T05:05:56.752Z,99171.19
2022-10-13T05:06:20.672Z,99176.91
2022-10-13T05:06:34.876Z,99170.37
2022-10-13T05:07:15.975Z,99172.97
2022-10-13T05:07:20.706Z,99180.88
2022-10-13T05:07:33.824Z,99171.03
2022-10-13T05:07:47.004Z,99168.56
2022-10-13T05:08:00.194Z,99171.97
2022-10-13T05:08:13.279Z,99175.53
2022-10-13T05:08:26.336Z,99166.78
2022-10-13T05:08:39.183Z,99172.88
2022-10-13T05:08:53.149Z,99170.16
2022-10-13T05:09:06.025Z,99172.75
2022-10-13T05:09:19.089Z,99176.25
2022-10-13T05:09:32.062Z,99170.97
2022-10-13T05:10:05.180Z,99172.97
2022-10-13T05:10:20.293Z,99179.81
2022-10-13T05:10:34.897Z,99171.16
2022-10-13T05:11:01.041Z,99173.91
2022-10-13T05:11:14.546Z,99177.34
2022-10-13T05:11:29.547Z,99169.28
2022-10-13T05:11:42.345Z,99176.16
2022-10-13T05:11:55.277Z,99171.38
2022-10-13T05:12:08.556Z,99172.13
2022-10-13T05:12:21.827Z,99170.19
2022-10-13T05:12:35.525Z,99179.72
2022-10-13T05:12:48.544Z,99174.28
2022-10-13T05:13:01.738Z,99169.81
2022-10-13T05:13:14.603Z,99177.69
2022-10-13T05:13:27.932Z,99177.09
2022-10-13T05:13:44.950Z,99172.03
2022-10-13T05:13:57.806Z,99170.37
2022-10-13T05:14:10.689Z,99166.00
2022-10-13T05:14:23.623Z,99173.03
2022-10-13T05:14:36.459Z,99172.34
2022-10-13T05:14:49.705Z,99171.38
2022-10-13T05:15:03.751Z,99175.84
2022-10-13T05:15:16.646Z,99173.03
2022-10-13T05:15:29.458Z,99167.69
2022-10-13T05:15:42.539Z,99173.75
2022-10-13T05:15:56.095Z,99177.13
2022-10-13T05:16:10.545Z,99174.25
2022-10-13T05:16:23.660Z,99175.06
2022-10-13T05:16:37.427Z,99173.16
2022-10-13T05:16:51.255Z,99175.72
2022-10-13T05:17:04.277Z,99174.88
2022-10-13T05:17:17.156Z,99179.28
2022-10-13T05:17:35.111Z,99173.94
2022-10-13T05:18:05.095Z,99177.50
2022-10-13T05:18:18.033Z,99180.16
2022-10-13T05:18:30.841Z,99179.19
2022-10-13T05:18:43.778Z,99172.00
2022-10-13T05:18:56.948Z,99170.28
2022-10-13T05:19:11.599Z,99174.00
2022-10-13T05:19:26.778Z,99169.66
2022-10-13T05:19:39.581Z,99172.16
2022-10-13T05:19:52.709Z,99173.66
2022-10-13T05:20:05.919Z,99170.81
2022-10-13T05:20:18.806Z,99172.41
2022-10-13T05:20:33.637Z,99167.00
2022-10-13T05:20:46.847Z,99178.28
2022-10-13T05:21:13.636Z,99177.47
2022-10-13T05:21:28.087Z,99173.16
2022-10-13T05:21:40.881Z,99168.13
2022-10-13T05:21:53.740Z,99166.53
2022-10-13T05:22:06.563Z,99168.28
2022-10-13T05:22:20.037Z,99171.16
2022-10-13T05:22:33.356Z,99181.78
2022-10-13T05:22:46.173Z,99177.37
2022-10-13T05:22:59.048Z,99169.47
2022-10-13T05:23:12.101Z,99172.16
2022-10-13T05:23:25.557Z,99169.44
2022-10-13T05:23:38.926Z,99167.66
2022-10-13T05:23:55.525Z,99164.38
2022-10-13T05:24:13.541Z,99168.13
2022-10-13T05:24:36.482Z,99177.16
2022-10-13T05:25:09.274Z,99171.16
2022-10-13T05:25:22.228Z,99167.69
2022-10-13T05:25:54.953Z,99167.84
2022-10-13T05:26:10.081Z,99176.59
2022-10-13T05:26:27.872Z,99171.13
2022-10-13T05:26:41.192Z,99171.03
2022-10-13T05:26:54.467Z,99171.69
2022-10-13T05:27:09.578Z,99170.69
2022-10-13T05:27:23.268Z,99174.09
2022-10-13T05:27:54.872Z,99178.47
2022-10-13T05:28:07.984Z,99168.75
2022-10-13T05:28:20.877Z,99172.16
2022-10-13T05:28:38.619Z,99173.91
2022-10-13T05:28:51.933Z,99182.03
2022-10-13T05:29:04.838Z,99172.47
2022-10-13T05:29:18.377Z,99175.03
2022-10-13T05:29:31.360Z,99173.31
2022-10-13T05:30:29.657Z,99177.84
2022-10-13T05:30:42.507Z,99178.75
2022-10-13T05:30:55.517Z,99176.00
2022-10-13T05:31:13.146Z,99181.25
2022-10-13T05:31:27.157Z,99176.97
2022-10-13T05:31:40.344Z,99175.09
2022-10-13T05:31:53.490Z,99176.16
2022-10-13T05:32:06.559Z,99176.97
2022-10-13T05:32:19.776Z,99175.91
2022-10-13T05:32:35.417Z,99181.09
2022-10-13T05:32:51.577Z,99173.22
2022-10-13T05:33:06.597Z,99179.47
2022-10-13T05:33:19.925Z,99175.91
2022-10-13T05:33:34.572Z,99175.06
2022-10-13T05:33:48.029Z,99175.09
2022-10-13T05:34:01.513Z,99171.50
2022-10-13T05:34:14.912Z,99180.25
2022-10-13T05:34:27.977Z,99175.88
2022-10-13T05:34:40.805Z,99176.72
2022-10-13T05:34:53.644Z,99180.19
2022-10-13T06:15:41.793Z,99204.16
2022-10-13T06:15:54.959Z,99203.31
2022-10-13T06:16:08.168Z,99200.53
2022-10-13T06:16:21.079Z,99209.28
2022-10-13T06:16:37.087Z,99200.53
2022-10-13T06:16:51.244Z,99205.00
2022-10-13T06:17:04.105Z,99204.09
2022-10-13T06:17:17.006Z,99202.38
2022-10-13T06:17:30.165Z,99205.06
2022-10-13T06:17:43.899Z,99202.22
2022-10-13T06:17:56.873Z,99209.16
2022-10-13T06:18:10.001Z,99211.97
2022-10-13T06:18:22.857Z,99209.47
2022-10-13T06:18:35.724Z,99202.38
2022-10-13T06:18:48.785Z,99209.53
2022-10-13T06:19:01.667Z,99206.06
2022-10-13T06:19:15.507Z,99206.78
2022-10-13T06:19:28.502Z,99206.69
2022-10-13T06:19:42.349Z,99203.09
2022-10-13T06:19:55.952Z,99206.56
2022-10-13T06:20:09.768Z,99204.69
2022-10-13T06:20:22.812Z,99202.19
2022-10-13T06:20:36.176Z,99201.44
2022-10-13T06:21:42.850Z,99206.50
2022-10-13T06:21:52.945Z,99207.22
2022-10-13T06:22:08.604Z,99206.22
2022-10-13T06:22:23.325Z,99206.22
2022-10-13T06:22:37.326Z,99209.72
2022-10-13T06:22:51.170Z,99202.56
2022-10-13T06:23:05.784Z,99211.25
2022-10-13T06:23:18.795Z,99197.88
2022-10-13T06:23:31.586Z,99203.06
2022-10-13T06:23:44.779Z,99207.34
2022-10-13T06:23:59.803Z,99201.97
2022-10-13T06:24:12.757Z,99206.34
2022-10-13T06:24:26.035Z,99201.91
2022-10-13T06:24:39.110Z,99211.56
2022-10-13T06:24:51.999Z,99197.22
2022-10-13T06:25:25.366Z,99200.69
2022-10-13T06:25:38.817Z,99204.81
2022-10-13T06:25:53.858Z,99200.34
2022-10-13T06:26:09.207Z,99200.34
2022-10-13T06:26:22.021Z,99203.91
2022-10-13T06:26:38.885Z,99209.13
2022-10-13T06:26:51.745Z,99200.28
2022-10-13T06:27:05.143Z,99206.38
2022-10-13T06:27:18.188Z,99209.03
2022-10-13T06:27:31.380Z,99202.81
2022-10-13T06:27:44.308Z,99208.97
2022-10-13T06:28:00.038Z,99202.81
2022-10-13T06:28:13.387Z,99208.94
2022-10-13T06:28:28.410Z,99203.69
2022-10-13T06:28:56.944Z,99208.00
2022-10-13T06:29:12.309Z,99208.13
2022-10-13T06:29:25.463Z,99207.91
2022-10-13T06:29:38.667Z,99203.25
2022-10-13T06:29:51.872Z,99207.66
2022-10-13T06:30:04.943Z,99212.19
2022-10-13T06:30:18.056Z,99199.81
2022-10-13T06:30:30.879Z,99206.78
2022-10-13T06:30:46.976Z,99204.22
2022-10-13T06:31:00.280Z,99213.09
2022-10-13T06:31:14.159Z,99202.63
2022-10-13T06:31:27.336Z,99212.50
2022-10-13T06:31:40.185Z,99204.97
2022-10-13T06:31:53.331Z,99206.75
2022-10-13T06:32:06.259Z,99203.91
2022-10-13T06:32:19.722Z,99201.19
2022-10-13T06:32:33.360Z,99200.34
2022-10-13T06:32:46.402Z,99205.72
2022-10-13T06:33:07.891Z,99205.81
2022-10-13T06:33:22.388Z,99202.22
2022-10-13T06:33:35.423Z,99204.81
2022-10-13T06:33:49.163Z,99211.06
2022-10-13T06:34:02.853Z,99204.19